createdAt,value
2022-12-08T00:02:06.431Z,88.20
2022-12-08T00:04:54.096Z,88.19
2022-12-08T00:07:40.405Z,88.44
2022-12-08T00:10:39.826Z,88.41
2022-12-08T00:12:56.188Z,88.33
2022-12-08T00:15:23.889Z,87.72
2022-12-08T00:17:51.467Z,88.13
2022-12-08T00:20:18.967Z,88.01
2022-12-08T00:22:46.676Z,88.43
2022-12-08T00:25:14.850Z,88.44
2022-12-08T00:27:42.440Z,88.16
2022-12-08T00:30:10.727Z,88.57
2022-12-08T00:32:38.446Z,88.27
2022-12-08T00:35:06.341Z,88.28
2022-12-08T00:37:34.100Z,88.38
2022-12-08T00:40:01.991Z,88.35
2022-12-08T00:42:29.967Z,87.81
2022-12-08T00:44:57.607Z,88.30
2022-12-08T00:47:25.275Z,87.76
2022-12-08T00:49:52.771Z,87.76
2022-12-08T00:52:20.538Z,87.84
2022-12-08T00:54:48.557Z,87.62
2022-12-08T00:57:16.045Z,88.19
2022-12-08T00:59:43.572Z,88.17
2022-12-08T01:02:11.220Z,87.87
2022-12-08T01:04:39.132Z,87.71
2022-12-08T01:07:06.677Z,88.00
2022-12-08T01:09:34.189Z,87.61
2022-12-08T01:12:01.814Z,87.98
2022-12-08T01:14:29.341Z,87.71
2022-12-08T01:16:57.077Z,87.67
2022-12-08T01:19:24.768Z,87.35
2022-12-08T01:21:52.310Z,87.78
2022-12-08T01:24:21.345Z,87.82
2022-12-08T01:26:50.873Z,87.10
2022-12-08T01:29:18.566Z,87.39
2022-12-08T01:31:46.052Z,87.09
2022-12-08T01:34:13.557Z,87.01
2022-12-08T01:36:42.512Z,87.26
2022-12-08T01:39:19.971Z,87.01
2022-12-08T01:41:47.929Z,86.82
2022-12-08T01:44:15.390Z,87.13
2022-12-08T01:46:45.547Z,86.59
2022-12-08T01:49:18.015Z,86.99
2022-12-08T01:51:57.275Z,86.87
2022-12-08T01:54:29.169Z,87.23
2022-12-08T01:57:06.444Z,86.87
2022-12-08T01:59:38.910Z,86.74
2022-12-08T02:02:06.384Z,86.78
2022-12-08T02:04:34.061Z,86.49
2022-12-08T02:07:07.804Z,86.36
2022-12-08T02:09:37.731Z,86.78
2022-12-08T02:12:05.605Z,86.12
2022-12-08T02:14:34.503Z,86.46
2022-12-08T02:17:49.267Z,85.98
2022-12-08T02:20:42.309Z,86.54
2022-12-08T02:23:24.243Z,86.16
2022-12-08T02:26:09.837Z,86.25
2022-12-08T02:29:25.151Z,86.81
2022-12-08T02:32:23.908Z,86.26
2022-12-08T02:34:57.477Z,86.63
2022-12-08T02:37:41.086Z,86.09
2022-12-08T02:40:27.360Z,86.13
2022-12-08T02:43:20.273Z,85.94
2022-12-08T02:45:57.096Z,85.52
2022-12-08T02:48:28.444Z,85.87
2022-12-08T02:50:56.465Z,85.74
2022-12-08T02:53:24.003Z,85.47
2022-12-08T02:56:09.667Z,85.30
2022-12-08T02:59:00.299Z,84.94
2022-12-08T03:01:37.471Z,85.03
2022-12-08T03:04:22.567Z,85.68
2022-12-08T03:07:24.688Z,85.39
2022-12-08T03:10:03.602Z,85.33
2022-12-08T03:12:48.639Z,85.06
2022-12-08T03:15:19.809Z,84.92
2022-12-08T03:17:53.375Z,85.13
2022-12-08T03:20:27.943Z,84.90
2022-12-08T03:22:57.521Z,85.17
2022-12-08T03:25:30.549Z,84.80
2022-12-08T03:27:59.821Z,84.87
2022-12-08T03:30:31.907Z,84.76
2022-12-08T03:33:06.268Z,84.34
2022-12-08T03:35:37.003Z,84.34
2022-12-08T03:38:13.647Z,84.76
2022-12-08T03:40:41.546Z,85.15
2022-12-08T03:43:09.440Z,84.92
2022-12-08T03:45:37.142Z,84.75
2022-12-08T03:48:04.707Z,84.64
2022-12-08T03:50:32.540Z,84.77
2022-12-08T03:53:00.088Z,84.96
2022-12-08T03:55:27.773Z,85.05
2022-12-08T03:57:55.237Z,84.36
2022-12-08T04:00:23.052Z,84.36
2022-12-08T04:02:50.655Z,84.44
2022-12-08T04:05:18.220Z,84.57
2022-12-08T04:07:45.748Z,84.89
2022-12-08T04:10:13.363Z,84.73
2022-12-08T04:12:40.850Z,84.60
2022-12-08T04:15:09.130Z,84.53
2022-12-08T04:17:36.618Z,84.05
2022-12-08T04:20:04.745Z,84.41
2022-12-08T04:22:32.529Z,84.34
2022-12-08T04:25:00.199Z,83.98
2022-12-08T04:27:27.745Z,84.06
2022-12-08T04:29:55.217Z,84.13
2022-12-08T04:32:22.678Z,83.73
2022-12-08T04:34:50.228Z,83.54
2022-12-08T04:37:17.689Z,83.72
2022-12-08T04:39:45.174Z,83.72
2022-12-08T04:42:12.622Z,83.75
2022-12-08T04:44:40.178Z,83.75
2022-12-08T04:47:07.708Z,83.62
2022-12-08T04:49:35.255Z,83.61
2022-12-08T04:52:02.967Z,83.74
2022-12-08T04:54:30.505Z,83.43
2022-12-08T04:56:57.971Z,83.39
2022-12-08T04:59:25.523Z,83.43
2022-12-08T05:01:53.150Z,83.65
2022-12-08T05:04:20.812Z,83.43
2022-12-08T05:06:48.349Z,83.34
2022-12-08T05:09:15.864Z,83.17
2022-12-08T05:11:48.627Z,83.16
2022-12-08T05:14:18.576Z,83.46
2022-12-08T05:16:47.220Z,83.15
2022-12-08T05:19:15.966Z,83.35
2022-12-08T05:21:43.654Z,83.31
2022-12-08T05:24:11.223Z,83.53
2022-12-08T05:26:38.675Z,83.17
2022-12-08T05:29:06.180Z,83.37
2022-12-08T05:31:33.988Z,83.20
2022-12-08T05:34:03.444Z,83.25
2022-12-08T05:36:31.167Z,83.36
2022-12-08T05:38:58.678Z,83.12
2022-12-08T05:41:26.387Z,83.06
2022-12-08T05:43:53.919Z,82.98
2022-12-08T05:46:22.089Z,83.09
2022-12-08T05:48:49.779Z,82.65
2022-12-08T05:51:23.242Z,82.38
2022-12-08T05:53:52.022Z,82.82
2022-12-08T05:56:20.158Z,82.80
2022-12-08T05:58:48.369Z,82.74
2022-12-08T06:01:28.144Z,82.77
2022-12-08T06:03:57.856Z,82.98
2022-12-08T06:06:25.936Z,82.57
2022-12-08T06:08:54.377Z,83.22
2022-12-08T06:11:27.812Z,82.93
2022-12-08T06:13:56.904Z,83.04
2022-12-08T06:16:26.533Z,83.36
2022-12-08T06:18:55.208Z,83.09
2022-12-08T06:21:23.233Z,82.83
2022-12-08T06:23:52.871Z,83.28
2022-12-08T06:26:21.338Z,82.68
2022-12-08T06:28:49.699Z,83.27
2022-12-08T06:31:20.508Z,83.18
2022-12-08T06:33:48.801Z,83.50
2022-12-08T06:36:19.463Z,83.43
2022-12-08T06:38:47.559Z,83.11
2022-12-08T06:41:15.885Z,82.99
2022-12-08T06:43:44.087Z,83.19
2022-12-08T06:46:16.264Z,83.37
2022-12-08T06:48:44.118Z,83.26
2022-12-08T06:51:20.711Z,83.11
2022-12-08T06:53:48.534Z,83.28
2022-12-08T06:56:17.118Z,83.29
2022-12-08T06:58:50.450Z,83.21
2022-12-08T07:01:19.799Z,83.10
2022-12-08T07:03:48.110Z,83.21
2022-12-08T07:06:19.344Z,83.19
2022-12-08T07:08:47.171Z,83.19
2022-12-08T07:11:21.202Z,83.22
2022-12-08T07:13:50.348Z,83.03
2022-12-08T07:16:18.162Z,83.03
2022-12-08T07:18:45.736Z,83.14
2022-12-08T07:21:17.308Z,82.87
2022-12-08T07:23:54.213Z,83.34
2022-12-08T07:26:26.917Z,83.21
2022-12-08T07:28:54.896Z,83.40
2022-12-08T07:31:25.214Z,83.28
2022-12-08T07:33:53.647Z,83.33
2022-12-08T07:36:21.607Z,83.15
2022-12-08T07:38:50.412Z,83.23
2022-12-08T07:41:23.684Z,83.02
2022-12-08T07:43:52.093Z,83.03
2022-12-08T07:46:22.032Z,83.30
2022-12-08T07:48:49.797Z,83.30
2022-12-08T07:51:17.686Z,83.35
2022-12-08T07:53:53.387Z,83.14
2022-12-08T07:56:22.584Z,83.08
2022-12-08T07:58:50.632Z,83.23
2022-12-08T08:01:29.689Z,83.17
2022-12-08T08:04:02.075Z,83.13
2022-12-08T08:06:30.039Z,82.99
2022-12-08T08:08:57.586Z,83.17
2022-12-08T08:11:25.286Z,83.27
2022-12-08T08:13:53.729Z,83.38
2022-12-08T08:16:21.791Z,83.59
2022-12-08T08:18:50.841Z,83.76
2022-12-08T08:24:08.011Z,83.51
2022-12-08T08:26:37.225Z,83.53
2022-12-08T08:29:04.955Z,83.71
2022-12-08T08:31:32.573Z,83.70
2022-12-08T08:34:05.032Z,83.80
2022-12-08T08:36:33.062Z,83.40
2022-12-08T08:39:00.591Z,83.94
2022-12-08T08:41:28.133Z,83.67
2022-12-08T08:43:55.677Z,83.95
2022-12-08T08:46:23.304Z,83.95
2022-12-08T08:48:50.847Z,83.90
2022-12-08T08:51:18.544Z,84.62
2022-12-08T08:53:46.166Z,84.06
2022-12-08T08:56:19.385Z,84.13
2022-12-08T08:58:49.666Z,84.21
2022-12-08T09:01:22.802Z,84.35
2022-12-08T09:03:50.984Z,84.50
2022-12-08T09:06:19.415Z,84.23
2022-12-08T09:08:48.635Z,84.28
2022-12-08T09:11:18.706Z,84.49
2022-12-08T09:13:51.545Z,84.47
2022-12-08T09:16:19.900Z,84.54
2022-12-08T09:18:51.209Z,84.35
2022-12-08T09:21:26.103Z,84.52
2022-12-08T09:23:56.374Z,84.56
2022-12-08T09:26:25.398Z,84.79
2022-12-08T09:28:55.000Z,84.53
2022-12-08T09:31:24.524Z,84.74
2022-12-08T09:33:52.398Z,84.60
2022-12-08T09:36:21.113Z,84.36
2022-12-08T09:38:50.383Z,84.58
2022-12-08T09:41:36.851Z,84.36
2022-12-08T09:44:06.646Z,84.63
2022-12-08T09:46:35.789Z,83.98
2022-12-08T09:49:11.678Z,84.50
2022-12-08T09:51:42.004Z,84.12
2022-12-08T09:54:13.793Z,84.60
2022-12-08T09:56:41.806Z,84.08
2022-12-08T09:59:09.258Z,83.93
2022-12-08T10:01:42.095Z,83.93
2022-12-08T10:04:24.116Z,83.82
2022-12-08T10:07:17.017Z,83.91
2022-12-08T10:09:58.113Z,84.05
2022-12-08T10:12:43.263Z,84.19
2022-12-08T10:15:16.882Z,83.79
2022-12-08T10:17:49.149Z,83.86
2022-12-08T10:20:22.576Z,83.99
2022-12-08T10:23:06.547Z,84.13
2022-12-08T10:25:41.426Z,84.08
2022-12-08T10:28:11.103Z,83.95
2022-12-08T10:30:38.936Z,83.29
2022-12-08T10:33:15.341Z,83.53
2022-12-08T10:35:58.398Z,83.80
2022-12-08T10:38:37.416Z,83.32
2022-12-08T10:41:14.672Z,83.06
2022-12-08T10:43:53.444Z,83.09
2022-12-08T10:46:27.075Z,81.96
2022-12-08T10:49:06.862Z,80.66
2022-12-08T10:51:34.519Z,81.13
2022-12-08T10:54:03.377Z,80.36
2022-12-08T10:56:31.544Z,79.72
2022-12-08T10:59:07.160Z,78.57
2022-12-08T11:01:39.386Z,77.45
2022-12-08T11:04:21.142Z,76.68
2022-12-08T11:06:50.728Z,75.84
2022-12-08T11:09:18.625Z,74.59
2022-12-08T11:11:50.606Z,74.10
2022-12-08T11:14:27.766Z,73.80
2022-12-08T11:17:07.396Z,73.87
2022-12-08T11:19:39.485Z,73.45
2022-12-08T11:22:26.899Z,72.89
2022-12-08T11:25:27.142Z,71.61
2022-12-08T11:28:00.892Z,72.17
2022-12-08T11:30:36.918Z,71.96
2022-12-08T11:33:23.956Z,72.06
2022-12-08T11:36:12.034Z,71.86
2022-12-08T11:38:47.846Z,72.02
2022-12-08T11:41:19.375Z,72.04
2022-12-08T11:44:02.233Z,71.92
2022-12-08T11:46:43.354Z,72.41
2022-12-08T11:49:13.802Z,72.01
2022-12-08T11:51:48.317Z,72.45
2022-12-08T11:54:26.489Z,72.75
2022-12-08T11:57:00.870Z,72.87
2022-12-08T11:59:34.774Z,73.09
2022-12-08T12:02:04.645Z,73.21
2022-12-08T12:04:50.057Z,72.28
2022-12-08T12:07:37.489Z,71.75
2022-12-08T12:10:39.119Z,71.66
2022-12-08T12:13:30.700Z,71.10
2022-12-08T12:16:17.436Z,70.69
2022-12-08T12:18:53.247Z,69.46
2022-12-08T12:21:29.659Z,69.46
2022-12-08T12:24:10.492Z,68.02
2022-12-08T12:26:49.749Z,67.00
2022-12-08T12:29:20.260Z,65.72
2022-12-08T12:40:24.733Z,62.42
2022-12-08T12:42:54.984Z,61.66
2022-12-08T12:45:22.482Z,60.05
2022-12-08T12:47:56.203Z,59.29
2022-12-08T12:50:33.599Z,58.34
2022-12-08T12:53:15.608Z,57.72
2022-12-08T12:55:46.205Z,57.87
2022-12-08T12:58:36.567Z,57.35
2022-12-08T13:01:12.924Z,57.03
2022-12-08T13:03:44.174Z,56.62
2022-12-08T13:06:14.976Z,56.33
2022-12-08T13:09:03.707Z,55.98
2022-12-08T13:11:48.071Z,55.97
2022-12-08T13:14:31.699Z,55.36
2022-12-08T13:17:01.677Z,55.56
2022-12-08T13:23:36.587Z,55.71
2022-12-08T13:26:15.088Z,54.80
2022-12-08T13:29:08.735Z,54.65
2022-12-08T13:40:27.785Z,54.58
2022-12-08T13:43:10.670Z,54.15
2022-12-08T13:46:41.961Z,54.36
2022-12-08T13:57:32.754Z,54.69
2022-12-08T14:00:14.803Z,54.81
2022-12-08T14:02:47.771Z,54.65
2022-12-08T14:05:23.450Z,54.41
2022-12-08T14:07:57.595Z,54.59
2022-12-08T14:10:32.125Z,54.19
2022-12-08T14:13:06.473Z,53.79
2022-12-08T14:15:38.088Z,55.11
2022-12-08T14:18:21.204Z,54.13
2022-12-08T14:21:22.087Z,54.35
2022-12-08T14:23:49.827Z,55.43
2022-12-08T14:26:18.116Z,55.41
2022-12-08T14:28:45.946Z,55.88
2022-12-08T14:31:14.683Z,56.56
2022-12-08T14:33:43.146Z,56.80
2022-12-08T14:36:14.682Z,56.98
2022-12-08T14:38:42.405Z,57.10
2022-12-08T14:41:12.056Z,57.32
2022-12-08T14:43:43.195Z,57.63
2022-12-08T14:46:22.479Z,58.09
2022-12-08T14:48:50.340Z,58.66
2022-12-08T14:51:25.320Z,59.19
2022-12-08T14:54:00.049Z,58.69
2022-12-08T14:56:41.891Z,59.46
2022-12-08T14:59:09.518Z,59.54
2022-12-08T15:01:42.241Z,60.68
2022-12-08T15:04:13.021Z,60.54
2022-12-08T15:06:59.833Z,61.60
2022-12-08T15:09:30.218Z,61.66
2022-12-08T15:12:02.917Z,61.71
2022-12-08T15:14:36.344Z,62.47
2022-12-08T15:17:24.521Z,62.43
2022-12-08T15:19:57.174Z,62.66
2022-12-08T15:22:26.660Z,63.86
2022-12-08T15:24:54.668Z,64.39
2022-12-08T15:27:25.052Z,64.78
2022-12-08T15:34:37.657Z,65.50
2022-12-08T15:37:52.084Z,66.02
2022-12-08T15:40:23.048Z,66.18
2022-12-08T15:42:50.676Z,66.55
2022-12-08T15:45:18.871Z,67.04
2022-12-08T15:47:46.524Z,67.58
2022-12-08T15:50:22.375Z,67.76
2022-12-08T15:52:50.949Z,68.21
2022-12-08T15:55:20.693Z,68.61
2022-12-08T16:00:57.952Z,69.11
2022-12-08T16:04:09.343Z,69.34
2022-12-08T16:09:17.647Z,69.75
2022-12-08T16:12:07.115Z,70.43
2022-12-08T16:17:24.383Z,70.74
2022-12-08T16:19:51.959Z,71.41
2022-12-08T16:25:21.135Z,71.72
2022-12-08T16:28:12.389Z,72.28
2022-12-08T16:30:45.519Z,72.38
2022-12-08T16:33:13.227Z,72.50
2022-12-08T16:44:48.037Z,73.05
2022-12-08T16:47:15.723Z,73.01
2022-12-08T16:49:43.272Z,73.24
2022-12-08T16:52:11.059Z,73.59
2022-12-08T16:54:50.566Z,73.46
2022-12-08T16:57:21.074Z,73.58
2022-12-08T16:59:48.653Z,73.64
2022-12-08T17:02:16.666Z,74.45
2022-12-08T17:04:44.433Z,74.11
2022-12-08T17:07:12.092Z,74.18
2022-12-08T17:09:39.700Z,74.91
2022-12-08T17:12:07.432Z,74.88
2022-12-08T17:14:35.744Z,75.16
2022-12-08T17:17:03.895Z,74.83
2022-12-08T17:19:32.033Z,74.85
2022-12-08T17:21:59.634Z,75.05
2022-12-08T17:24:29.139Z,75.46
2022-12-08T17:26:58.428Z,75.73
2022-12-08T17:29:25.942Z,75.16
2022-12-08T17:31:53.647Z,75.44
2022-12-08T17:34:21.753Z,75.57
2022-12-08T17:36:49.384Z,75.54
2022-12-08T17:39:18.956Z,75.30
2022-12-08T17:41:47.426Z,75.93
2022-12-08T17:44:19.234Z,76.06
2022-12-08T17:46:52.506Z,75.68
2022-12-08T17:49:24.985Z,75.86
2022-12-08T17:51:55.527Z,75.76
2022-12-08T17:54:23.489Z,75.58
2022-12-08T17:56:51.515Z,75.47
2022-12-08T17:59:19.143Z,75.51
2022-12-08T18:01:46.952Z,75.86
2022-12-08T18:04:14.851Z,76.03
2022-12-08T18:06:42.424Z,75.73
2022-12-08T18:09:10.099Z,75.66
2022-12-08T18:11:37.687Z,75.88
2022-12-08T18:14:10.277Z,76.17
2022-12-08T18:16:40.824Z,76.12
2022-12-08T18:19:09.711Z,76.46
2022-12-08T18:21:38.107Z,77.04
2022-12-08T18:24:37.944Z,76.81
2022-12-08T18:27:05.527Z,76.78
2022-12-08T18:29:33.534Z,77.24
2022-12-08T18:32:16.167Z,77.77
2022-12-08T18:34:44.296Z,77.65
2022-12-08T18:37:11.823Z,78.14
2022-12-08T18:39:39.703Z,78.12
2022-12-08T18:42:23.042Z,78.02
2022-12-08T18:45:07.506Z,78.29
2022-12-08T18:47:39.730Z,77.80
2022-12-08T18:50:09.256Z,77.87
2022-12-08T18:52:36.894Z,77.93
2022-12-08T18:55:06.713Z,78.21
2022-12-08T18:57:38.422Z,78.11
2022-12-08T19:00:08.427Z,78.03
2022-12-08T19:02:38.532Z,78.54
2022-12-08T19:05:08.142Z,78.73
2022-12-08T19:07:36.034Z,78.81
2022-12-08T19:10:05.090Z,78.91
2022-12-08T19:12:33.026Z,78.71
2022-12-08T19:15:00.593Z,79.60
2022-12-08T19:17:29.786Z,79.22
2022-12-08T19:19:57.580Z,79.12
2022-12-08T19:22:25.214Z,79.74
2022-12-08T19:24:52.828Z,79.34
2022-12-08T19:27:20.480Z,79.55
2022-12-08T19:29:48.088Z,79.75
2022-12-08T19:32:15.679Z,79.68
2022-12-08T19:34:43.265Z,80.16
2022-12-08T19:37:12.687Z,80.10
2022-12-08T19:39:59.673Z,80.01
2022-12-08T19:42:45.879Z,79.69
2022-12-08T19:45:18.556Z,79.96
2022-12-08T19:48:43.005Z,79.80
2022-12-08T19:56:18.590Z,80.42
2022-12-08T19:58:46.271Z,80.05
2022-12-08T20:01:14.068Z,80.34
2022-12-08T20:03:41.810Z,80.69
2022-12-08T20:06:18.012Z,80.42
2022-12-08T20:08:50.369Z,80.31
2022-12-08T20:11:18.482Z,80.63
2022-12-08T20:13:47.793Z,80.59
2022-12-08T20:16:16.557Z,80.53
2022-12-08T20:18:44.367Z,80.54
2022-12-08T20:21:12.519Z,81.07
2022-12-08T20:23:41.178Z,81.11
2022-12-08T20:26:12.463Z,80.71
2022-12-08T20:28:40.214Z,81.12
2022-12-08T20:31:08.017Z,81.23
2022-12-08T20:33:37.743Z,81.30
2022-12-08T20:36:07.532Z,81.08
2022-12-08T20:38:35.197Z,81.55
2022-12-08T20:41:03.198Z,81.35
2022-12-08T20:43:30.818Z,81.22
2022-12-08T20:45:58.443Z,81.42
2022-12-08T20:52:14.535Z,81.08
2022-12-08T20:54:42.221Z,81.34
2022-12-08T20:57:09.877Z,81.67
2022-12-08T20:59:37.577Z,81.29
2022-12-08T21:02:05.375Z,81.35
2022-12-08T21:04:33.201Z,81.36
2022-12-08T21:07:00.957Z,81.48
2022-12-08T21:09:28.910Z,82.03
2022-12-08T21:11:56.686Z,81.54
2022-12-08T21:14:24.378Z,81.63
2022-12-08T21:16:54.633Z,81.43
2022-12-08T21:19:22.726Z,81.59
2022-12-08T21:21:51.008Z,81.52
2022-12-08T21:24:19.378Z,81.86
2022-12-08T21:26:47.106Z,82.04
2022-12-08T21:29:14.914Z,82.01
2022-12-08T21:31:42.673Z,81.69
2022-12-08T21:34:11.504Z,81.78
2022-12-08T21:36:39.181Z,81.76
2022-12-08T21:39:12.783Z,81.94
2022-12-08T21:41:59.609Z,81.87
2022-12-08T21:44:27.493Z,81.48
2022-12-08T21:46:55.167Z,81.82
2022-12-08T21:49:22.968Z,81.46
2022-12-08T21:51:50.985Z,81.36
2022-12-08T21:54:19.583Z,81.48
2022-12-08T21:56:49.097Z,81.51
2022-12-08T21:59:18.462Z,81.49
2022-12-08T22:01:46.759Z,82.05
2022-12-08T22:04:18.259Z,81.68
2022-12-08T22:06:46.063Z,82.04
2022-12-08T22:09:15.258Z,81.81
2022-12-08T22:11:44.161Z,81.44
2022-12-08T22:14:14.981Z,81.80
2022-12-08T22:16:44.364Z,81.79
2022-12-08T22:19:12.698Z,81.65
2022-12-08T22:21:40.458Z,81.63
2022-12-08T22:24:08.281Z,82.01
2022-12-08T22:26:36.042Z,81.76
2022-12-08T22:29:03.846Z,81.95
2022-12-08T22:31:31.852Z,81.90
2022-12-08T22:34:00.180Z,81.46
2022-12-08T22:36:28.765Z,81.79
2022-12-08T22:38:56.481Z,82.03
2022-12-08T22:41:24.480Z,81.65
2022-12-08T22:43:52.317Z,81.30
2022-12-08T22:46:23.435Z,81.32
2022-12-08T22:48:54.128Z,81.19
2022-12-08T22:51:21.959Z,81.67
2022-12-08T22:53:50.162Z,81.65
2022-12-08T22:56:19.179Z,81.31
2022-12-08T22:58:47.820Z,81.26
2022-12-08T23:01:26.693Z,81.20
2022-12-08T23:03:55.025Z,81.09
2022-12-08T23:06:23.540Z,81.34
2022-12-08T23:08:52.322Z,81.43
2022-12-08T23:11:22.285Z,80.94
2022-12-08T23:13:49.947Z,80.75
2022-12-08T23:16:17.950Z,80.90
2022-12-08T23:18:47.329Z,80.99
2022-12-08T23:21:18.606Z,81.03
2022-12-08T23:23:46.898Z,80.95
2022-12-08T23:26:23.787Z,81.04
2022-12-08T23:28:51.893Z,80.91
2022-12-08T23:31:20.663Z,80.77
2022-12-08T23:33:48.852Z,80.99
2022-12-08T23:36:17.880Z,81.21
2022-12-08T23:38:46.244Z,81.58
2022-12-08T23:41:15.974Z,81.43
2022-12-08T23:43:46.814Z,81.52
2022-12-08T23:46:16.982Z,81.74
2022-12-08T23:48:44.781Z,81.36
2022-12-08T23:51:13.107Z,81.43
2022-12-08T23:53:41.563Z,81.59
2022-12-08T23:56:12.212Z,81.48
2022-12-08T23:58:40.690Z,81.55
